sensor_id;sensor_type;location;lat;lon;timestamp;P1;durP1;ratioP1;P2;durP2;ratioP2
15240;SDS011;7723;52.170;9.978;2022-10-15T00:02:19;4.45;;;3.72;;
15240;SDS011;7723;52.170;9.978;2022-10-15T00:04:48;6.80;;;4.50;;
15240;SDS011;7723;52.170;9.978;2022-10-15T00:07:15;6.07;;;4.45;;
15240;SDS011;7723;52.170;9.978;2022-10-15T00:09:42;5.00;;;3.72;;
15240;SDS011;7723;52.170;9.978;2022-10-15T00:12:09;4.25;;;3.85;;
15240;SDS011;7723;52.170;9.978;2022-10-15T00:14:36;4.53;;;3.47;;
15240;SDS011;7723;52.170;9.978;2022-10-15T00:17:03;4.72;;;3.78;;
15240;SDS011;7723;52.170;9.978;2022-10-15T00:19:30;4.47;;;3.65;;
15240;SDS011;7723;52.170;9.978;2022-10-15T00:21:59;4.82;;;3.88;;
15240;SDS011;7723;52.170;9.978;2022-10-15T00:24:26;6.65;;;4.32;;
15240;SDS011;7723;52.170;9.978;2022-10-15T00:26:53;7.07;;;4.40;;
15240;SDS011;7723;52.170;9.978;2022-10-15T00:29:20;4.28;;;3.65;;
15240;SDS011;7723;52.170;9.978;2022-10-15T00:31:49;6.28;;;4.18;;
15240;SDS011;7723;52.170;9.978;2022-10-15T00:34:16;7.00;;;4.25;;
15240;SDS011;7723;52.170;9.978;2022-10-15T00:36:43;5.30;;;3.25;;
15240;SDS011;7723;52.170;9.978;2022-10-15T00:39:12;4.05;;;3.42;;
15240;SDS011;7723;52.170;9.978;2022-10-15T00:41:39;5.38;;;4.45;;
15240;SDS011;7723;52.170;9.978;2022-10-15T00:47:15;7.90;;;4.53;;
15240;SDS011;7723;52.170;9.978;2022-10-15T00:49:46;4.70;;;3.80;;
15240;SDS011;7723;52.170;9.978;2022-10-15T00:52:22;5.47;;;4.18;;
15240;SDS011;7723;52.170;9.978;2022-10-15T00:54:54;7.22;;;3.90;;
15240;SDS011;7723;52.170;9.978;2022-10-15T00:57:26;5.00;;;3.90;;
15240;SDS011;7723;52.170;9.978;2022-10-15T00:59:56;4.70;;;3.45;;
15240;SDS011;7723;52.170;9.978;2022-10-15T01:02:26;5.82;;;3.67;;
15240;SDS011;7723;52.170;9.978;2022-10-15T01:04:53;6.22;;;4.55;;
15240;SDS011;7723;52.170;9.978;2022-10-15T01:07:21;6.90;;;4.82;;
15240;SDS011;7723;52.170;9.978;2022-10-15T01:09:48;4.07;;;3.67;;
15240;SDS011;7723;52.170;9.978;2022-10-15T01:12:18;5.60;;;4.03;;
15240;SDS011;7723;52.170;9.978;2022-10-15T01:14:54;5.97;;;4.47;;
15240;SDS011;7723;52.170;9.978;2022-10-15T01:17:29;6.00;;;4.43;;
15240;SDS011;7723;52.170;9.978;2022-10-15T01:20:26;5.32;;;4.75;;
15240;SDS011;7723;52.170;9.978;2022-10-15T01:26:34;5.68;;;4.07;;
15240;SDS011;7723;52.170;9.978;2022-10-15T01:29:18;6.93;;;4.75;;
15240;SDS011;7723;52.170;9.978;2022-10-15T01:32:01;5.57;;;4.05;;
15240;SDS011;7723;52.170;9.978;2022-10-15T01:34:35;4.80;;;3.83;;
15240;SDS011;7723;52.170;9.978;2022-10-15T01:37:10;7.43;;;5.00;;
15240;SDS011;7723;52.170;9.978;2022-10-15T01:39:44;7.80;;;5.40;;
15240;SDS011;7723;52.170;9.978;2022-10-15T01:42:16;6.95;;;5.07;;
15240;SDS011;7723;52.170;9.978;2022-10-15T01:44:49;5.88;;;4.63;;
15240;SDS011;7723;52.170;9.978;2022-10-15T01:47:21;6.85;;;4.63;;
15240;SDS011;7723;52.170;9.978;2022-10-15T01:49:51;7.90;;;4.57;;
15240;SDS011;7723;52.170;9.978;2022-10-15T01:52:21;6.90;;;4.95;;
15240;SDS011;7723;52.170;9.978;2022-10-15T01:54:52;11.02;;;5.00;;
15240;SDS011;7723;52.170;9.978;2022-10-15T01:57:20;7.32;;;5.88;;
15240;SDS011;7723;52.170;9.978;2022-10-15T01:59:50;8.02;;;5.60;;
15240;SDS011;7723;52.170;9.978;2022-10-15T02:02:18;9.77;;;5.95;;
15240;SDS011;7723;52.170;9.978;2022-10-15T02:04:46;9.07;;;6.45;;
15240;SDS011;7723;52.170;9.978;2022-10-15T02:07:14;7.30;;;6.00;;
15240;SDS011;7723;52.170;9.978;2022-10-15T02:09:49;7.07;;;5.72;;
15240;SDS011;7723;52.170;9.978;2022-10-15T02:12:27;7.38;;;5.40;;
15240;SDS011;7723;52.170;9.978;2022-10-15T02:14:59;8.23;;;5.78;;
15240;SDS011;7723;52.170;9.978;2022-10-15T02:17:33;6.63;;;5.60;;
15240;SDS011;7723;52.170;9.978;2022-10-15T02:20:06;7.90;;;5.53;;
15240;SDS011;7723;52.170;9.978;2022-10-15T02:22:40;7.68;;;5.50;;
15240;SDS011;7723;52.170;9.978;2022-10-15T02:25:14;6.53;;;5.28;;
15240;SDS011;7723;52.170;9.978;2022-10-15T02:27:47;7.72;;;5.10;;
15240;SDS011;7723;52.170;9.978;2022-10-15T02:30:16;7.72;;;5.20;;
15240;SDS011;7723;52.170;9.978;2022-10-15T02:32:44;7.25;;;5.40;;
15240;SDS011;7723;52.170;9.978;2022-10-15T02:35:16;8.00;;;5.50;;
15240;SDS011;7723;52.170;9.978;2022-10-15T02:37:46;7.47;;;5.43;;
15240;SDS011;7723;52.170;9.978;2022-10-15T02:40:15;7.95;;;5.05;;
15240;SDS011;7723;52.170;9.978;2022-10-15T02:42:43;7.25;;;5.35;;
15240;SDS011;7723;52.170;9.978;2022-10-15T02:45:10;8.38;;;6.18;;
15240;SDS011;7723;52.170;9.978;2022-10-15T02:47:38;8.70;;;5.97;;
15240;SDS011;7723;52.170;9.978;2022-10-15T02:50:05;15.05;;;5.97;;
15240;SDS011;7723;52.170;9.978;2022-10-15T02:52:34;9.45;;;6.60;;
15240;SDS011;7723;52.170;9.978;2022-10-15T02:55:01;8.48;;;6.28;;
15240;SDS011;7723;52.170;9.978;2022-10-15T02:57:29;10.02;;;6.32;;
15240;SDS011;7723;52.170;9.978;2022-10-15T02:59:56;9.95;;;7.22;;
15240;SDS011;7723;52.170;9.978;2022-10-15T03:02:23;11.43;;;7.80;;
15240;SDS011;7723;52.170;9.978;2022-10-15T03:04:50;8.93;;;6.70;;
15240;SDS011;7723;52.170;9.978;2022-10-15T03:07:17;8.23;;;6.57;;
15240;SDS011;7723;52.170;9.978;2022-10-15T03:09:46;9.98;;;6.20;;
15240;SDS011;7723;52.170;9.978;2022-10-15T03:12:13;10.43;;;7.10;;
15240;SDS011;7723;52.170;9.978;2022-10-15T03:14:40;11.40;;;6.97;;
15240;SDS011;7723;52.170;9.978;2022-10-15T03:17:07;11.27;;;6.85;;
15240;SDS011;7723;52.170;9.978;2022-10-15T03:19:34;8.65;;;6.32;;
15240;SDS011;7723;52.170;9.978;2022-10-15T03:22:01;10.65;;;7.35;;
15240;SDS011;7723;52.170;9.978;2022-10-15T03:24:29;10.38;;;7.13;;
15240;SDS011;7723;52.170;9.978;2022-10-15T03:26:57;10.15;;;6.85;;
15240;SDS011;7723;52.170;9.978;2022-10-15T03:29:24;10.23;;;6.85;;
15240;SDS011;7723;52.170;9.978;2022-10-15T03:31:52;12.35;;;6.18;;
15240;SDS011;7723;52.170;9.978;2022-10-15T03:34:19;9.55;;;6.93;;
15240;SDS011;7723;52.170;9.978;2022-10-15T03:36:46;11.20;;;7.35;;
15240;SDS011;7723;52.170;9.978;2022-10-15T03:39:13;9.90;;;6.68;;
15240;SDS011;7723;52.170;9.978;2022-10-15T03:41:40;10.50;;;6.80;;
15240;SDS011;7723;52.170;9.978;2022-10-15T03:44:10;13.73;;;8.45;;
15240;SDS011;7723;52.170;9.978;2022-10-15T03:46:37;10.75;;;7.40;;
15240;SDS011;7723;52.170;9.978;2022-10-15T03:49:04;11.02;;;7.35;;
15240;SDS011;7723;52.170;9.978;2022-10-15T03:51:31;11.15;;;7.65;;
15240;SDS011;7723;52.170;9.978;2022-10-15T03:53:58;12.75;;;8.32;;
15240;SDS011;7723;52.170;9.978;2022-10-15T03:56:26;14.38;;;8.73;;
15240;SDS011;7723;52.170;9.978;2022-10-15T03:58:53;16.85;;;9.55;;
15240;SDS011;7723;52.170;9.978;2022-10-15T04:01:21;12.23;;;8.18;;
15240;SDS011;7723;52.170;9.978;2022-10-15T04:03:50;13.20;;;8.20;;
15240;SDS011;7723;52.170;9.978;2022-10-15T04:06:18;14.80;;;8.65;;
15240;SDS011;7723;52.170;9.978;2022-10-15T04:08:46;12.25;;;8.07;;
15240;SDS011;7723;52.170;9.978;2022-10-15T04:11:13;15.20;;;9.38;;
15240;SDS011;7723;52.170;9.978;2022-10-15T04:13:40;14.65;;;8.75;;
15240;SDS011;7723;52.170;9.978;2022-10-15T04:16:07;16.38;;;9.15;;
15240;SDS011;7723;52.170;9.978;2022-10-15T04:18:35;17.02;;;10.10;;
15240;SDS011;7723;52.170;9.978;2022-10-15T04:21:03;15.00;;;8.70;;
15240;SDS011;7723;52.170;9.978;2022-10-15T04:23:30;16.27;;;9.35;;
15240;SDS011;7723;52.170;9.978;2022-10-15T04:25:57;14.73;;;9.43;;
15240;SDS011;7723;52.170;9.978;2022-10-15T04:28:25;14.27;;;9.57;;
15240;SDS011;7723;52.170;9.978;2022-10-15T04:30:54;13.88;;;8.73;;
15240;SDS011;7723;52.170;9.978;2022-10-15T04:33:23;13.48;;;8.45;;
15240;SDS011;7723;52.170;9.978;2022-10-15T04:35:57;14.95;;;8.93;;
15240;SDS011;7723;52.170;9.978;2022-10-15T04:38:25;14.85;;;9.35;;
15240;SDS011;7723;52.170;9.978;2022-10-15T04:41:00;17.13;;;9.60;;
15240;SDS011;7723;52.170;9.978;2022-10-15T04:43:28;14.40;;;9.20;;
15240;SDS011;7723;52.170;9.978;2022-10-15T04:45:56;15.07;;;9.55;;
15240;SDS011;7723;52.170;9.978;2022-10-15T04:48:24;13.90;;;8.40;;
15240;SDS011;7723;52.170;9.978;2022-10-15T04:50:53;13.35;;;8.43;;
15240;SDS011;7723;52.170;9.978;2022-10-15T04:53:21;13.85;;;8.65;;
15240;SDS011;7723;52.170;9.978;2022-10-15T04:55:49;15.63;;;9.80;;
15240;SDS011;7723;52.170;9.978;2022-10-15T04:58:16;13.88;;;8.55;;
15240;SDS011;7723;52.170;9.978;2022-10-15T05:00:43;15.73;;;9.55;;
15240;SDS011;7723;52.170;9.978;2022-10-15T05:03:10;14.80;;;8.95;;
15240;SDS011;7723;52.170;9.978;2022-10-15T05:05:37;16.98;;;9.48;;
15240;SDS011;7723;52.170;9.978;2022-10-15T05:08:05;15.63;;;9.93;;
15240;SDS011;7723;52.170;9.978;2022-10-15T05:10:33;14.02;;;8.65;;
15240;SDS011;7723;52.170;9.978;2022-10-15T05:13:00;16.58;;;9.52;;
15240;SDS011;7723;52.170;9.978;2022-10-15T05:15:27;15.35;;;9.00;;
15240;SDS011;7723;52.170;9.978;2022-10-15T05:17:54;15.77;;;9.85;;
15240;SDS011;7723;52.170;9.978;2022-10-15T05:20:22;15.98;;;8.73;;
15240;SDS011;7723;52.170;9.978;2022-10-15T05:22:49;17.10;;;9.82;;
15240;SDS011;7723;52.170;9.978;2022-10-15T05:25:16;16.73;;;10.23;;
15240;SDS011;7723;52.170;9.978;2022-10-15T05:27:45;16.70;;;10.80;;
15240;SDS011;7723;52.170;9.978;2022-10-15T05:30:12;16.60;;;10.40;;
15240;SDS011;7723;52.170;9.978;2022-10-15T05:32:41;16.70;;;10.57;;
15240;SDS011;7723;52.170;9.978;2022-10-15T05:35:08;18.92;;;11.73;;
15240;SDS011;7723;52.170;9.978;2022-10-15T05:37:35;17.35;;;10.68;;
15240;SDS011;7723;52.170;9.978;2022-10-15T05:40:03;17.48;;;10.20;;
15240;SDS011;7723;52.170;9.978;2022-10-15T05:42:30;15.70;;;9.73;;
15240;SDS011;7723;52.170;9.978;2022-10-15T05:44:59;17.88;;;10.27;;
15240;SDS011;7723;52.170;9.978;2022-10-15T05:47:26;17.25;;;11.05;;
15240;SDS011;7723;52.170;9.978;2022-10-15T05:49:53;16.80;;;10.43;;
15240;SDS011;7723;52.170;9.978;2022-10-15T05:52:21;18.63;;;11.13;;
15240;SDS011;7723;52.170;9.978;2022-10-15T05:54:48;18.15;;;10.73;;
15240;SDS011;7723;52.170;9.978;2022-10-15T05:57:15;19.33;;;11.88;;
15240;SDS011;7723;52.170;9.978;2022-10-15T05:59:42;20.20;;;11.80;;
15240;SDS011;7723;52.170;9.978;2022-10-15T06:02:11;17.15;;;10.02;;
15240;SDS011;7723;52.170;9.978;2022-10-15T06:04:40;16.48;;;9.85;;
15240;SDS011;7723;52.170;9.978;2022-10-15T06:07:07;18.60;;;10.43;;
15240;SDS011;7723;52.170;9.978;2022-10-15T06:09:35;20.33;;;11.98;;
15240;SDS011;7723;52.170;9.978;2022-10-15T06:12:02;20.58;;;11.85;;
15240;SDS011;7723;52.170;9.978;2022-10-15T06:14:29;17.88;;;10.82;;
15240;SDS011;7723;52.170;9.978;2022-10-15T06:16:56;20.02;;;10.75;;
15240;SDS011;7723;52.170;9.978;2022-10-15T06:19:25;19.92;;;11.40;;
15240;SDS011;7723;52.170;9.978;2022-10-15T06:21:52;19.13;;;10.63;;
15240;SDS011;7723;52.170;9.978;2022-10-15T06:24:19;17.25;;;10.48;;
15240;SDS011;7723;52.170;9.978;2022-10-15T06:26:46;17.30;;;10.38;;
15240;SDS011;7723;52.170;9.978;2022-10-15T06:29:14;14.60;;;9.52;;
15240;SDS011;7723;52.170;9.978;2022-10-15T06:31:41;18.48;;;11.35;;
15240;SDS011;7723;52.170;9.978;2022-10-15T06:34:08;16.98;;;10.70;;
15240;SDS011;7723;52.170;9.978;2022-10-15T06:36:37;16.88;;;11.85;;
15240;SDS011;7723;52.170;9.978;2022-10-15T06:39:04;14.65;;;9.73;;
15240;SDS011;7723;52.170;9.978;2022-10-15T06:41:32;14.68;;;9.18;;
15240;SDS011;7723;52.170;9.978;2022-10-15T06:43:59;15.95;;;11.27;;
15240;SDS011;7723;52.170;9.978;2022-10-15T06:46:26;15.73;;;10.90;;
15240;SDS011;7723;52.170;9.978;2022-10-15T06:48:54;16.52;;;10.32;;
15240;SDS011;7723;52.170;9.978;2022-10-15T06:51:21;15.30;;;10.10;;
15240;SDS011;7723;52.170;9.978;2022-10-15T06:53:49;15.57;;;10.48;;
15240;SDS011;7723;52.170;9.978;2022-10-15T06:56:16;12.75;;;9.15;;
15240;SDS011;7723;52.170;9.978;2022-10-15T06:58:44;14.90;;;9.77;;
15240;SDS011;7723;52.170;9.978;2022-10-15T07:01:11;14.65;;;9.40;;
15240;SDS011;7723;52.170;9.978;2022-10-15T07:03:38;14.30;;;9.90;;
15240;SDS011;7723;52.170;9.978;2022-10-15T07:06:06;16.10;;;11.25;;
15240;SDS011;7723;52.170;9.978;2022-10-15T07:08:34;18.08;;;11.35;;
15240;SDS011;7723;52.170;9.978;2022-10-15T07:11:04;19.23;;;9.82;;
15240;SDS011;7723;52.170;9.978;2022-10-15T07:13:32;18.08;;;10.25;;
15240;SDS011;7723;52.170;9.978;2022-10-15T07:16:02;14.63;;;9.77;;
15240;SDS011;7723;52.170;9.978;2022-10-15T07:18:30;16.20;;;11.38;;
15240;SDS011;7723;52.170;9.978;2022-10-15T07:20:57;16.15;;;9.77;;
15240;SDS011;7723;52.170;9.978;2022-10-15T07:23:25;14.35;;;9.88;;
15240;SDS011;7723;52.170;9.978;2022-10-15T07:25:52;14.23;;;9.18;;
15240;SDS011;7723;52.170;9.978;2022-10-15T07:28:21;15.80;;;9.82;;
15240;SDS011;7723;52.170;9.978;2022-10-15T07:30:48;14.98;;;9.63;;
15240;SDS011;7723;52.170;9.978;2022-10-15T07:33:16;13.25;;;8.88;;
15240;SDS011;7723;52.170;9.978;2022-10-15T07:35:43;13.40;;;9.10;;
15240;SDS011;7723;52.170;9.978;2022-10-15T07:38:10;13.60;;;8.45;;
15240;SDS011;7723;52.170;9.978;2022-10-15T07:40:37;12.95;;;7.97;;
15240;SDS011;7723;52.170;9.978;2022-10-15T07:43:04;15.00;;;9.35;;
15240;SDS011;7723;52.170;9.978;2022-10-15T07:45:33;15.30;;;9.60;;
15240;SDS011;7723;52.170;9.978;2022-10-15T07:48:00;13.15;;;9.25;;
15240;SDS011;7723;52.170;9.978;2022-10-15T07:50:27;14.60;;;10.02;;
15240;SDS011;7723;52.170;9.978;2022-10-15T07:52:55;14.00;;;8.85;;
15240;SDS011;7723;52.170;9.978;2022-10-15T07:55:22;16.08;;;9.30;;
15240;SDS011;7723;52.170;9.978;2022-10-15T07:57:49;13.32;;;9.70;;
15240;SDS011;7723;52.170;9.978;2022-10-15T08:00:16;13.35;;;9.30;;
15240;SDS011;7723;52.170;9.978;2022-10-15T08:02:45;12.00;;;9.10;;
15240;SDS011;7723;52.170;9.978;2022-10-15T08:05:12;11.25;;;8.57;;
15240;SDS011;7723;52.170;9.978;2022-10-15T08:07:39;13.32;;;9.20;;
15240;SDS011;7723;52.170;9.978;2022-10-15T08:10:07;12.23;;;9.13;;
15240;SDS011;7723;52.170;9.978;2022-10-15T08:12:36;12.93;;;9.18;;
15240;SDS011;7723;52.170;9.978;2022-10-15T08:15:03;15.35;;;10.10;;
15240;SDS011;7723;52.170;9.978;2022-10-15T08:17:30;15.43;;;9.35;;
15240;SDS011;7723;52.170;9.978;2022-10-15T08:19:59;13.75;;;9.55;;
15240;SDS011;7723;52.170;9.978;2022-10-15T08:22:26;13.10;;;9.23;;
15240;SDS011;7723;52.170;9.978;2022-10-15T08:24:54;13.73;;;9.30;;
15240;SDS011;7723;52.170;9.978;2022-10-15T08:27:21;12.88;;;8.02;;
15240;SDS011;7723;52.170;9.978;2022-10-15T08:29:48;13.15;;;9.73;;
15240;SDS011;7723;52.170;9.978;2022-10-15T08:32:15;15.85;;;11.50;;
15240;SDS011;7723;52.170;9.978;2022-10-15T08:34:42;13.23;;;9.43;;
15240;SDS011;7723;52.170;9.978;2022-10-15T08:37:11;12.80;;;8.32;;
15240;SDS011;7723;52.170;9.978;2022-10-15T08:39:38;12.35;;;9.48;;
15240;SDS011;7723;52.170;9.978;2022-10-15T08:42:06;12.05;;;9.18;;
15240;SDS011;7723;52.170;9.978;2022-10-15T08:44:44;11.65;;;8.52;;
15240;SDS011;7723;52.170;9.978;2022-10-15T08:47:18;11.30;;;8.57;;
15240;SDS011;7723;52.170;9.978;2022-10-15T08:49:52;12.00;;;8.02;;
15240;SDS011;7723;52.170;9.978;2022-10-15T08:52:23;10.13;;;7.68;;
15240;SDS011;7723;52.170;9.978;2022-10-15T08:54:54;15.18;;;8.60;;
15240;SDS011;7723;52.170;9.978;2022-10-15T08:57:27;11.25;;;8.02;;
15240;SDS011;7723;52.170;9.978;2022-10-15T09:00:03;11.35;;;8.15;;
15240;SDS011;7723;52.170;9.978;2022-10-15T09:02:37;11.48;;;8.13;;
15240;SDS011;7723;52.170;9.978;2022-10-15T09:05:16;10.57;;;7.50;;
15240;SDS011;7723;52.170;9.978;2022-10-15T09:07:55;11.55;;;8.15;;
15240;SDS011;7723;52.170;9.978;2022-10-15T09:10:31;9.48;;;6.70;;
15240;SDS011;7723;52.170;9.978;2022-10-15T09:13:04;10.82;;;7.10;;
15240;SDS011;7723;52.170;9.978;2022-10-15T09:15:43;11.68;;;7.72;;
15240;SDS011;7723;52.170;9.978;2022-10-15T09:18:17;9.45;;;6.90;;
15240;SDS011;7723;52.170;9.978;2022-10-15T09:20:47;9.88;;;7.43;;
15240;SDS011;7723;52.170;9.978;2022-10-15T09:23:17;17.60;;;11.50;;
15240;SDS011;7723;52.170;9.978;2022-10-15T09:25:48;12.88;;;9.15;;
15240;SDS011;7723;52.170;9.978;2022-10-15T09:28:21;13.93;;;9.85;;
15240;SDS011;7723;52.170;9.978;2022-10-15T09:30:55;11.20;;;7.97;;
15240;SDS011;7723;52.170;9.978;2022-10-15T09:33:28;10.52;;;7.45;;
15240;SDS011;7723;52.170;9.978;2022-10-15T09:36:05;10.82;;;7.18;;
15240;SDS011;7723;52.170;9.978;2022-10-15T09:38:42;10.80;;;7.10;;
15240;SDS011;7723;52.170;9.978;2022-10-15T09:41:20;8.93;;;6.97;;
15240;SDS011;7723;52.170;9.978;2022-10-15T09:43:54;10.40;;;6.63;;
15240;SDS011;7723;52.170;9.978;2022-10-15T09:46:25;9.75;;;6.72;;
15240;SDS011;7723;52.170;9.978;2022-10-15T09:48:54;9.05;;;6.90;;
15240;SDS011;7723;52.170;9.978;2022-10-15T09:51:33;8.10;;;6.63;;
15240;SDS011;7723;52.170;9.978;2022-10-15T09:54:07;8.57;;;6.63;;
15240;SDS011;7723;52.170;9.978;2022-10-15T09:56:42;6.85;;;5.32;;
15240;SDS011;7723;52.170;9.978;2022-10-15T09:59:14;5.88;;;4.97;;
15240;SDS011;7723;52.170;9.978;2022-10-15T10:01:54;5.53;;;4.85;;
15240;SDS011;7723;52.170;9.978;2022-10-15T10:04:24;6.95;;;5.07;;
15240;SDS011;7723;52.170;9.978;2022-10-15T10:06:53;6.32;;;4.75;;
15240;SDS011;7723;52.170;9.978;2022-10-15T10:09:25;5.03;;;4.05;;
15240;SDS011;7723;52.170;9.978;2022-10-15T10:11:57;4.70;;;3.97;;
15240;SDS011;7723;52.170;9.978;2022-10-15T10:14:27;6.68;;;4.88;;
15240;SDS011;7723;52.170;9.978;2022-10-15T10:17:04;4.78;;;4.10;;
15240;SDS011;7723;52.170;9.978;2022-10-15T10:19:41;4.60;;;3.60;;
15240;SDS011;7723;52.170;9.978;2022-10-15T10:22:12;4.32;;;3.70;;
15240;SDS011;7723;52.170;9.978;2022-10-15T10:24:44;4.68;;;3.97;;
15240;SDS011;7723;52.170;9.978;2022-10-15T10:27:20;4.97;;;3.58;;
15240;SDS011;7723;52.170;9.978;2022-10-15T10:29:52;4.05;;;3.60;;
15240;SDS011;7723;52.170;9.978;2022-10-15T10:32:22;4.15;;;3.40;;
15240;SDS011;7723;52.170;9.978;2022-10-15T10:34:53;4.60;;;3.65;;
15240;SDS011;7723;52.170;9.978;2022-10-15T10:37:21;4.85;;;3.97;;
15240;SDS011;7723;52.170;9.978;2022-10-15T10:39:53;4.65;;;3.90;;
15240;SDS011;7723;52.170;9.978;2022-10-15T10:42:24;3.95;;;3.50;;
15240;SDS011;7723;52.170;9.978;2022-10-15T10:45:06;5.13;;;3.63;;
15240;SDS011;7723;52.170;9.978;2022-10-15T10:47:45;3.28;;;2.90;;
15240;SDS011;7723;52.170;9.978;2022-10-15T10:50:26;4.28;;;3.28;;
15240;SDS011;7723;52.170;9.978;2022-10-15T10:52:56;4.80;;;3.17;;
15240;SDS011;7723;52.170;9.978;2022-10-15T10:55:28;4.03;;;3.17;;
15240;SDS011;7723;52.170;9.978;2022-10-15T10:58:02;3.53;;;3.00;;
15240;SDS011;7723;52.170;9.978;2022-10-15T11:00:33;5.28;;;3.15;;
15240;SDS011;7723;52.170;9.978;2022-10-15T11:03:03;7.40;;;3.80;;
15240;SDS011;7723;52.170;9.978;2022-10-15T11:05:33;15.05;;;8.65;;
15240;SDS011;7723;52.170;9.978;2022-10-15T11:08:06;12.60;;;6.85;;
15240;SDS011;7723;52.170;9.978;2022-10-15T11:10:45;11.07;;;7.13;;
15240;SDS011;7723;52.170;9.978;2022-10-15T11:13:24;5.38;;;4.10;;
15240;SDS011;7723;52.170;9.978;2022-10-15T11:16:06;3.97;;;3.58;;
15240;SDS011;7723;52.170;9.978;2022-10-15T11:18:44;4.57;;;3.38;;
15240;SDS011;7723;52.170;9.978;2022-10-15T11:21:21;4.75;;;3.15;;
15240;SDS011;7723;52.170;9.978;2022-10-15T11:24:03;3.03;;;2.72;;
15240;SDS011;7723;52.170;9.978;2022-10-15T11:26:42;2.55;;;2.35;;
15240;SDS011;7723;52.170;9.978;2022-10-15T11:29:20;3.00;;;2.25;;
15240;SDS011;7723;52.170;9.978;2022-10-15T11:31:56;2.80;;;2.50;;
15240;SDS011;7723;52.170;9.978;2022-10-15T11:34:32;3.03;;;2.10;;
15240;SDS011;7723;52.170;9.978;2022-10-15T11:37:10;2.80;;;2.30;;
15240;SDS011;7723;52.170;9.978;2022-10-15T11:39:53;2.17;;;1.98;;
15240;SDS011;7723;52.170;9.978;2022-10-15T11:42:34;2.85;;;2.45;;
15240;SDS011;7723;52.170;9.978;2022-10-15T11:45:15;3.33;;;2.80;;
15240;SDS011;7723;52.170;9.978;2022-10-15T11:47:57;4.07;;;2.63;;
15240;SDS011;7723;52.170;9.978;2022-10-15T11:50:31;2.65;;;2.33;;
15240;SDS011;7723;52.170;9.978;2022-10-15T11:53:04;3.38;;;2.53;;
15240;SDS011;7723;52.170;9.978;2022-10-15T11:55:48;2.25;;;2.05;;
15240;SDS011;7723;52.170;9.978;2022-10-15T11:58:27;2.88;;;2.53;;
15240;SDS011;7723;52.170;9.978;2022-10-15T12:00:57;3.13;;;2.45;;
15240;SDS011;7723;52.170;9.978;2022-10-15T12:03:29;2.15;;;1.95;;
15240;SDS011;7723;52.170;9.978;2022-10-15T12:06:02;3.45;;;2.95;;
15240;SDS011;7723;52.170;9.978;2022-10-15T12:08:34;3.35;;;2.30;;
15240;SDS011;7723;52.170;9.978;2022-10-15T12:11:08;3.17;;;2.38;;
15240;SDS011;7723;52.170;9.978;2022-10-15T12:13:49;3.03;;;1.90;;
15240;SDS011;7723;52.170;9.978;2022-10-15T12:16:22;2.55;;;2.30;;
15240;SDS011;7723;52.170;9.978;2022-10-15T12:18:55;2.78;;;2.30;;
15240;SDS011;7723;52.170;9.978;2022-10-15T12:21:34;2.72;;;2.28;;
15240;SDS011;7723;52.170;9.978;2022-10-15T12:27:15;3.50;;;2.03;;
15240;SDS011;7723;52.170;9.978;2022-10-15T12:29:48;2.60;;;2.30;;
15240;SDS011;7723;52.170;9.978;2022-10-15T12:32:21;2.95;;;2.10;;
15240;SDS011;7723;52.170;9.978;2022-10-15T12:34:53;4.15;;;2.20;;
15240;SDS011;7723;52.170;9.978;2022-10-15T12:37:21;1.77;;;1.67;;
15240;SDS011;7723;52.170;9.978;2022-10-15T12:39:53;3.25;;;2.20;;
15240;SDS011;7723;52.170;9.978;2022-10-15T12:42:23;2.15;;;1.95;;
15240;SDS011;7723;52.170;9.978;2022-10-15T12:44:55;2.40;;;2.00;;
15240;SDS011;7723;52.170;9.978;2022-10-15T12:47:45;2.92;;;2.05;;
15240;SDS011;7723;52.170;9.978;2022-10-15T12:50:16;2.20;;;2.00;;
15240;SDS011;7723;52.170;9.978;2022-10-15T12:52:53;2.75;;;2.00;;
15240;SDS011;7723;52.170;9.978;2022-10-15T12:55:24;6.72;;;5.18;;
15240;SDS011;7723;52.170;9.978;2022-10-15T12:57:54;3.55;;;2.40;;
15240;SDS011;7723;52.170;9.978;2022-10-15T13:00:30;3.55;;;1.88;;
15240;SDS011;7723;52.170;9.978;2022-10-15T13:03:08;2.45;;;1.95;;
15240;SDS011;7723;52.170;9.978;2022-10-15T13:05:44;1.67;;;1.58;;
15240;SDS011;7723;52.170;9.978;2022-10-15T13:08:12;3.75;;;2.10;;
15240;SDS011;7723;52.170;9.978;2022-10-15T13:10:46;1.95;;;1.75;;
15240;SDS011;7723;52.170;9.978;2022-10-15T13:13:17;1.73;;;1.60;;
15240;SDS011;7723;52.170;9.978;2022-10-15T13:15:54;4.85;;;2.05;;
15240;SDS011;7723;52.170;9.978;2022-10-15T13:18:23;2.17;;;1.63;;
15240;SDS011;7723;52.170;9.978;2022-10-15T13:20:51;1.67;;;1.58;;
15240;SDS011;7723;52.170;9.978;2022-10-15T13:23:21;1.75;;;1.65;;
15240;SDS011;7723;52.170;9.978;2022-10-15T13:25:52;2.33;;;1.40;;
15240;SDS011;7723;52.170;9.978;2022-10-15T13:28:36;1.60;;;1.30;;
15240;SDS011;7723;52.170;9.978;2022-10-15T13:31:11;2.80;;;1.70;;
15240;SDS011;7723;52.170;9.978;2022-10-15T13:33:42;1.48;;;1.30;;
15240;SDS011;7723;52.170;9.978;2022-10-15T13:36:15;1.30;;;1.20;;
15240;SDS011;7723;52.170;9.978;2022-10-15T13:38:50;1.33;;;1.23;;
15240;SDS011;7723;52.170;9.978;2022-10-15T13:41:24;1.00;;;0.80;;
15240;SDS011;7723;52.170;9.978;2022-10-15T13:43:53;0.70;;;0.65;;
15240;SDS011;7723;52.170;9.978;2022-10-15T13:46:25;2.38;;;1.10;;
15240;SDS011;7723;52.170;9.978;2022-10-15T13:48:57;1.27;;;1.00;;
15240;SDS011;7723;52.170;9.978;2022-10-15T13:51:32;1.17;;;0.93;;
15240;SDS011;7723;52.170;9.978;2022-10-15T13:54:06;1.42;;;1.15;;
15240;SDS011;7723;52.170;9.978;2022-10-15T13:56:36;3.42;;;2.45;;
15240;SDS011;7723;52.170;9.978;2022-10-15T13:59:11;1.10;;;0.90;;
15240;SDS011;7723;52.170;9.978;2022-10-15T14:01:46;0.98;;;0.70;;
15240;SDS011;7723;52.170;9.978;2022-10-15T14:04:15;1.92;;;1.15;;
15240;SDS011;7723;52.170;9.978;2022-10-15T14:06:50;0.52;;;0.52;;
15240;SDS011;7723;52.170;9.978;2022-10-15T14:09:21;0.88;;;0.63;;
15240;SDS011;7723;52.170;9.978;2022-10-15T14:11:51;1.58;;;0.80;;
15240;SDS011;7723;52.170;9.978;2022-10-15T14:14:26;0.50;;;0.50;;
15240;SDS011;7723;52.170;9.978;2022-10-15T14:16:56;3.33;;;0.73;;
15240;SDS011;7723;52.170;9.978;2022-10-15T14:19:25;0.80;;;0.80;;
15240;SDS011;7723;52.170;9.978;2022-10-15T14:21:55;0.60;;;0.43;;
15240;SDS011;7723;52.170;9.978;2022-10-15T14:24:25;1.10;;;0.77;;
15240;SDS011;7723;52.170;9.978;2022-10-15T14:27:00;1.10;;;1.00;;
15240;SDS011;7723;52.170;9.978;2022-10-15T14:29:39;0.50;;;0.50;;
15240;SDS011;7723;52.170;9.978;2022-10-15T14:32:20;0.70;;;0.60;;
15240;SDS011;7723;52.170;9.978;2022-10-15T14:34:50;0.57;;;0.57;;
15240;SDS011;7723;52.170;9.978;2022-10-15T14:37:32;0.70;;;0.70;;
15240;SDS011;7723;52.170;9.978;2022-10-15T14:40:12;0.40;;;0.40;;
15240;SDS011;7723;52.170;9.978;2022-10-15T14:42:43;0.73;;;0.60;;
15240;SDS011;7723;52.170;9.978;2022-10-15T14:45:13;1.77;;;0.77;;
15240;SDS011;7723;52.170;9.978;2022-10-15T14:47:47;1.45;;;0.57;;
15240;SDS011;7723;52.170;9.978;2022-10-15T14:50:18;0.77;;;0.65;;
15240;SDS011;7723;52.170;9.978;2022-10-15T14:52:46;0.50;;;0.50;;
15240;SDS011;7723;52.170;9.978;2022-10-15T14:55:18;1.02;;;0.60;;
15240;SDS011;7723;52.170;9.978;2022-10-15T14:57:57;0.90;;;0.73;;
15240;SDS011;7723;52.170;9.978;2022-10-15T15:00:27;1.42;;;0.63;;
15240;SDS011;7723;52.170;9.978;2022-10-15T15:02:58;0.85;;;0.55;;
15240;SDS011;7723;52.170;9.978;2022-10-15T15:05:28;0.60;;;0.60;;
15240;SDS011;7723;52.170;9.978;2022-10-15T15:07:56;1.15;;;0.70;;
15240;SDS011;7723;52.170;9.978;2022-10-15T15:10:24;0.93;;;0.70;;
15240;SDS011;7723;52.170;9.978;2022-10-15T15:12:53;1.50;;;0.80;;
15240;SDS011;7723;52.170;9.978;2022-10-15T15:15:23;1.88;;;0.60;;
15240;SDS011;7723;52.170;9.978;2022-10-15T15:17:51;0.98;;;0.60;;
15240;SDS011;7723;52.170;9.978;2022-10-15T15:20:20;0.75;;;0.60;;
15240;SDS011;7723;52.170;9.978;2022-10-15T15:22:49;1.40;;;0.60;;
15240;SDS011;7723;52.170;9.978;2022-10-15T15:25:19;0.68;;;0.60;;